createdAt,value
2022-11-01T06:44:26.526Z,52.64
2022-11-01T06:46:57.499Z,52.54
2022-11-01T06:49:27.306Z,52.92
2022-11-01T06:51:55.585Z,52.76
2022-11-01T06:54:24.135Z,52.31
2022-11-01T06:57:06.409Z,52.49
2022-11-01T06:59:36.292Z,52.32
2022-11-01T07:02:08.880Z,52.82
2022-11-01T07:04:40.661Z,53.23
2022-11-01T07:07:12.400Z,52.91
2022-11-01T07:09:43.423Z,53.06
2022-11-01T07:12:12.097Z,53.04
2022-11-01T07:14:42.843Z,53.02
2022-11-01T07:17:11.404Z,53.06
2022-11-01T07:19:40.281Z,53.34
2022-11-01T07:22:08.922Z,53.09
2022-11-01T07:24:40.596Z,53.23
2022-11-01T07:27:19.429Z,53.56
2022-11-01T07:29:52.916Z,53.64
2022-11-01T07:32:21.262Z,54.17
2022-11-01T07:34:49.675Z,54.02
2022-11-01T07:37:17.806Z,54.25
2022-11-01T07:39:47.707Z,54.26
2022-11-01T07:42:16.120Z,54.13
2022-11-01T07:44:45.914Z,54.42
2022-11-01T07:47:16.169Z,54.25
2022-11-01T07:49:44.452Z,54.00
2022-11-01T07:52:12.836Z,54.21
2022-11-01T07:54:43.024Z,53.85
2022-11-01T07:57:16.441Z,54.26
2022-11-01T07:59:44.319Z,54.36
2022-11-01T08:02:12.247Z,54.28
2022-11-01T08:04:42.723Z,54.10
2022-11-01T08:07:11.136Z,54.07
2022-11-01T08:09:40.326Z,53.88
2022-11-01T08:12:16.995Z,53.85
2022-11-01T08:14:53.600Z,53.75
2022-11-01T08:17:21.918Z,53.66
2022-11-01T08:19:52.550Z,53.61
2022-11-01T08:22:20.712Z,53.49
2022-11-01T08:24:49.184Z,53.96
2022-11-01T08:27:22.745Z,53.64
2022-11-01T08:29:51.289Z,53.68
2022-11-01T08:32:23.137Z,53.77
2022-11-01T08:34:53.277Z,53.65
2022-11-01T08:37:22.021Z,53.76
2022-11-01T08:39:50.135Z,53.82
2022-11-01T08:42:18.688Z,53.49
2022-11-01T08:44:48.579Z,53.56
2022-11-01T08:47:19.370Z,53.34
2022-11-01T08:49:50.145Z,53.05
2022-11-01T08:52:20.099Z,52.56
2022-11-01T08:54:48.142Z,53.19
2022-11-01T08:57:20.757Z,53.25
2022-11-01T08:59:48.810Z,52.84
2022-11-01T09:02:18.073Z,52.77
2022-11-01T09:04:46.196Z,53.05
2022-11-01T09:07:14.311Z,52.94
2022-11-01T09:09:44.380Z,52.94
2022-11-01T09:12:14.603Z,53.00
2022-11-01T09:14:43.475Z,52.87
2022-11-01T09:17:11.489Z,52.64
2022-11-01T09:19:39.454Z,53.15
2022-11-01T09:22:07.993Z,53.11
2022-11-01T09:24:47.620Z,52.73
2022-11-01T09:27:18.700Z,52.53
2022-11-01T09:29:51.033Z,52.58
2022-11-01T09:32:23.020Z,52.63
2022-11-01T09:34:51.195Z,52.53
2022-11-01T09:37:19.338Z,52.48
2022-11-01T09:39:52.958Z,52.62
2022-11-01T09:42:26.468Z,52.34
2022-11-01T09:44:58.661Z,52.24
2022-11-01T09:47:29.911Z,52.14
2022-11-01T09:50:08.218Z,52.32
2022-11-01T09:52:36.320Z,51.93
2022-11-01T09:55:18.067Z,52.11
2022-11-01T09:57:52.875Z,51.98
2022-11-01T10:00:24.057Z,51.40
2022-11-01T10:03:22.931Z,51.49
2022-11-01T10:06:03.865Z,51.81
2022-11-01T10:08:42.472Z,52.18
2022-11-01T10:11:33.402Z,51.54
2022-11-01T10:14:10.394Z,51.52
2022-11-01T10:16:42.514Z,51.55
2022-11-01T10:19:14.914Z,51.68
2022-11-01T10:21:49.157Z,51.34
2022-11-01T10:24:25.145Z,51.00
2022-11-01T10:27:01.645Z,51.23
2022-11-01T10:29:38.650Z,51.45
2022-11-01T10:32:21.856Z,51.01
2022-11-01T10:34:51.123Z,51.04
2022-11-01T10:37:33.453Z,51.04
2022-11-01T10:40:09.279Z,50.36
2022-11-01T10:42:39.780Z,51.11
2022-11-01T10:45:11.528Z,50.09
2022-11-01T10:47:43.345Z,50.52
2022-11-01T10:50:19.052Z,50.55
2022-11-01T10:52:53.042Z,50.54
2022-11-01T10:55:27.466Z,50.74
2022-11-01T10:58:02.222Z,50.80
2022-11-01T11:00:33.883Z,50.23
2022-11-01T11:03:14.524Z,49.92
2022-11-01T11:05:45.195Z,50.24
2022-11-01T11:08:19.438Z,50.04
2022-11-01T11:10:51.067Z,49.98
2022-11-01T11:13:25.081Z,50.17
2022-11-01T11:15:56.300Z,50.25
2022-11-01T11:18:27.078Z,49.86
2022-11-01T11:21:00.499Z,49.87
2022-11-01T11:23:31.786Z,50.06
2022-11-01T11:26:04.666Z,50.70
2022-11-01T11:28:44.064Z,50.46
2022-11-01T11:31:18.677Z,50.05
2022-11-01T11:33:52.345Z,50.38
2022-11-01T11:36:28.701Z,50.20
2022-11-01T11:38:58.955Z,50.26
2022-11-01T11:41:29.273Z,49.64
2022-11-01T11:44:00.705Z,49.79
2022-11-01T11:46:28.701Z,49.90
2022-11-01T11:49:00.321Z,49.73
2022-11-01T11:51:34.037Z,49.68
2022-11-01T11:54:21.819Z,49.84
2022-11-01T11:56:53.312Z,49.67
2022-11-01T11:59:31.087Z,49.57
2022-11-01T12:02:00.950Z,49.67
2022-11-01T12:04:33.298Z,49.59
2022-11-01T12:07:07.340Z,49.32
2022-11-01T12:09:46.754Z,49.34
2022-11-01T12:12:20.442Z,48.83
2022-11-01T12:14:50.615Z,48.97
2022-11-01T12:17:27.598Z,48.96
2022-11-01T12:20:02.260Z,48.24
2022-11-01T12:22:35.068Z,48.69
2022-11-01T12:25:09.126Z,48.52
2022-11-01T12:27:38.382Z,48.26
2022-11-01T12:30:20.828Z,48.15
2022-11-01T12:32:54.339Z,48.50
2022-11-01T12:35:30.175Z,48.03
2022-11-01T12:38:14.567Z,48.41
2022-11-01T12:40:47.199Z,48.25
2022-11-01T12:43:21.159Z,48.27
2022-11-01T12:45:56.524Z,48.13
2022-11-01T12:48:28.734Z,48.16
2022-11-01T12:51:01.657Z,47.71
2022-11-01T12:53:36.235Z,47.77
2022-11-01T12:56:04.215Z,47.95
2022-11-01T12:58:36.027Z,48.37
2022-11-01T13:01:23.148Z,47.89
2022-11-01T13:04:13.945Z,47.54
2022-11-01T13:07:10.176Z,47.83
2022-11-01T13:09:43.260Z,47.76
2022-11-01T13:12:19.164Z,47.66
2022-11-01T13:14:58.305Z,47.86
2022-11-01T13:17:38.970Z,47.55
2022-11-01T13:20:22.197Z,47.42
2022-11-01T13:22:58.796Z,47.71
2022-11-01T13:25:36.389Z,47.60
2022-11-01T13:28:16.138Z,47.33
2022-11-01T13:30:54.079Z,47.73
2022-11-01T13:33:32.706Z,47.73
2022-11-01T13:36:07.110Z,47.58
2022-11-01T13:38:44.148Z,47.60
2022-11-01T13:41:20.680Z,47.45
2022-11-01T13:43:53.132Z,47.58
2022-11-01T13:46:54.017Z,47.55
2022-11-01T13:49:43.560Z,47.97
2022-11-01T13:52:19.563Z,47.59
2022-11-01T13:54:54.871Z,47.51
2022-11-01T13:57:28.363Z,47.80
2022-11-01T13:59:59.403Z,48.09
2022-11-01T14:02:47.673Z,48.00
2022-11-01T14:05:17.442Z,47.48
2022-11-01T14:08:21.740Z,47.81
2022-11-01T14:10:52.211Z,48.01
2022-11-01T14:13:31.995Z,48.05
2022-11-01T14:16:25.362Z,47.89
2022-11-01T14:19:20.475Z,47.41
2022-11-01T14:21:53.280Z,47.97
2022-11-01T14:24:35.774Z,48.17
2022-11-01T14:27:22.900Z,48.32
2022-11-01T14:29:54.665Z,48.40
2022-11-01T14:32:28.482Z,47.93
2022-11-01T14:35:18.447Z,48.02
2022-11-01T14:37:51.825Z,48.42
2022-11-01T14:40:32.585Z,48.20
2022-11-01T14:43:05.622Z,48.20
2022-11-01T14:45:37.389Z,48.55
2022-11-01T14:48:14.013Z,48.74
2022-11-01T14:50:51.630Z,48.64
2022-11-01T14:53:28.292Z,48.74
2022-11-01T14:56:08.221Z,49.02
2022-11-01T14:58:37.764Z,49.03
2022-11-01T15:01:08.191Z,48.60
2022-11-01T15:03:36.494Z,48.83
2022-11-01T15:06:05.749Z,48.73
2022-11-01T15:08:43.140Z,48.76
2022-11-01T15:11:11.884Z,48.97
2022-11-01T15:13:44.289Z,48.71
2022-11-01T15:16:21.075Z,48.58
2022-11-01T15:18:53.336Z,48.63
2022-11-01T15:21:28.859Z,48.63
2022-11-01T15:24:03.701Z,48.59
2022-11-01T15:26:37.303Z,48.92
2022-11-01T15:29:07.012Z,48.78
2022-11-01T15:31:50.153Z,48.72
2022-11-01T15:34:24.111Z,48.94
2022-11-01T15:36:52.544Z,48.93
2022-11-01T15:39:23.969Z,48.88
2022-11-01T15:41:54.791Z,49.04
2022-11-01T15:44:24.773Z,48.99
2022-11-01T15:46:55.581Z,48.69
2022-11-01T15:49:27.120Z,49.01
2022-11-01T15:51:59.701Z,49.18
2022-11-01T15:54:39.041Z,49.12
2022-11-01T15:57:14.682Z,48.90
2022-11-01T15:59:51.840Z,49.23
2022-11-01T16:02:26.180Z,49.00
2022-11-01T16:04:57.251Z,48.87
2022-11-01T16:07:28.362Z,49.09
2022-11-01T16:10:02.407Z,49.34
2022-11-01T16:12:34.009Z,49.23
2022-11-01T16:15:06.856Z,49.06
2022-11-01T16:17:37.850Z,49.20
2022-11-01T16:20:27.176Z,49.12
2022-11-01T16:22:59.605Z,49.12
2022-11-01T17:37:06.703Z,50.13
2022-11-01T17:49:08.955Z,50.49
2022-11-01T17:55:15.707Z,50.55
